createdAt,value
2022-08-06T00:00:02.442Z,3.97
2022-08-06T00:02:26.043Z,3.50
2022-08-06T00:04:58.715Z,2.60
2022-08-06T00:07:26.535Z,2.80
2022-08-06T00:10:00.854Z,2.62
2022-08-06T00:12:33.392Z,2.62
2022-08-06T00:15:12.486Z,2.65
2022-08-06T00:17:43.375Z,2.37
2022-08-06T00:20:25.605Z,2.60
2022-08-06T00:23:00.182Z,2.45
2022-08-06T00:25:29.324Z,2.85
2022-08-06T00:28:04.144Z,2.78
2022-08-06T00:30:37.639Z,3.33
2022-08-06T00:33:05.422Z,2.58
2022-08-06T00:35:33.593Z,2.67
2022-08-06T00:38:02.133Z,2.90
2022-08-06T00:40:31.272Z,2.70
2022-08-06T00:43:02.475Z,2.53
2022-08-06T00:45:38.331Z,2.62
2022-08-06T00:48:30.994Z,2.50
2022-08-06T00:51:02.285Z,2.40
2022-08-06T00:53:33.848Z,2.60
2022-08-06T00:56:08.593Z,2.50
2022-08-06T00:58:39.954Z,2.67
2022-08-06T01:01:17.433Z,2.47
2022-08-06T01:03:50.803Z,2.45
2022-08-06T01:06:56.283Z,2.60
2022-08-06T01:09:10.173Z,2.70
2022-08-06T01:11:41.270Z,2.60
2022-08-06T01:14:10.551Z,2.45
2022-08-06T01:16:45.234Z,3.05
2022-08-06T01:19:29.855Z,3.17
2022-08-06T01:22:33.695Z,2.60
2022-08-06T01:25:46.244Z,2.87
2022-08-06T01:28:28.650Z,2.45
2022-08-06T01:31:10.417Z,2.90
2022-08-06T01:33:58.228Z,2.72
2022-08-06T01:36:30.928Z,2.75
2022-08-06T01:39:01.282Z,2.80
2022-08-06T01:41:58.244Z,2.97
2022-08-06T01:44:31.132Z,2.65
2022-08-06T01:47:02.125Z,2.50
2022-08-06T01:50:00.215Z,2.97
2022-08-06T01:52:29.380Z,2.70
2022-08-06T01:54:59.414Z,3.00
2022-08-06T01:57:32.822Z,2.87
2022-08-06T02:00:16.069Z,2.35
2022-08-06T02:02:45.121Z,2.55
2022-08-06T02:05:14.788Z,2.90
2022-08-06T02:08:36.552Z,3.20
2022-08-06T02:10:34.307Z,2.80
2022-08-06T02:13:03.306Z,2.78
2022-08-06T02:15:34.809Z,2.75
2022-08-06T02:18:34.248Z,2.78
2022-08-06T02:21:18.777Z,2.70
2022-08-06T02:23:57.332Z,2.95
2022-08-06T02:26:25.947Z,3.25
2022-08-06T02:29:01.777Z,2.70
2022-08-06T02:31:29.585Z,2.83
2022-08-06T02:34:15.520Z,2.67
2022-08-06T02:36:50.031Z,2.55
2022-08-06T02:39:51.879Z,2.83
2022-08-06T02:42:38.056Z,2.92
2022-08-06T02:45:16.672Z,2.67
2022-08-06T02:48:04.874Z,3.03
2022-08-06T02:50:39.062Z,2.90
2022-08-06T02:53:24.344Z,3.00
2022-08-06T02:55:59.107Z,2.40
2022-08-06T02:58:36.782Z,2.67
2022-08-06T03:01:21.632Z,3.17
2022-08-06T03:03:55.065Z,2.75
2022-08-06T03:06:30.853Z,2.95
2022-08-06T03:09:00.517Z,3.10
2022-08-06T03:11:32.420Z,2.95
2022-08-06T03:14:31.908Z,3.10
2022-08-06T03:16:52.446Z,2.83
2022-08-06T03:19:53.518Z,3.28
2022-08-06T03:22:11.657Z,3.05
2022-08-06T03:24:47.025Z,2.80
2022-08-06T03:27:16.990Z,2.83
2022-08-06T03:29:49.263Z,3.00
2022-08-06T03:32:51.084Z,3.08
2022-08-06T03:35:42.163Z,2.87
2022-08-06T03:38:03.071Z,2.97
2022-08-06T03:40:32.428Z,3.30
2022-08-06T03:43:00.712Z,2.87
2022-08-06T03:45:55.121Z,3.30
2022-08-06T03:48:35.611Z,3.20
2022-08-06T03:51:12.661Z,2.85
2022-08-06T03:53:44.821Z,2.83
2022-08-06T03:56:29.912Z,2.62
2022-08-06T03:59:04.755Z,2.83
2022-08-06T04:01:49.473Z,2.90
2022-08-06T04:04:26.028Z,2.70
2022-08-06T04:07:00.621Z,3.33
2022-08-06T04:10:00.817Z,2.80
2022-08-06T04:12:42.109Z,3.35
2022-08-06T04:15:10.544Z,3.75
2022-08-06T04:17:40.994Z,2.87
2022-08-06T04:20:12.359Z,2.90
2022-08-06T04:22:59.773Z,3.17
2022-08-06T04:25:29.629Z,3.53
2022-08-06T04:27:58.525Z,2.90
2022-08-06T04:30:27.728Z,3.28
2022-08-06T04:33:01.130Z,3.03
2022-08-06T04:36:06.927Z,3.20
2022-08-06T04:38:26.747Z,3.40
2022-08-06T04:40:58.044Z,3.25
2022-08-06T04:43:38.657Z,2.78
2022-08-06T04:46:17.105Z,3.22
2022-08-06T04:48:51.119Z,3.20
2022-08-06T04:52:36.457Z,2.87
2022-08-06T04:54:14.656Z,3.33
2022-08-06T04:56:49.827Z,2.92
2022-08-06T04:59:19.096Z,3.67
2022-08-06T05:01:57.392Z,2.75
2022-08-06T05:04:33.337Z,3.08
2022-08-06T05:07:10.665Z,3.28
2022-08-06T05:09:43.513Z,3.03
2022-08-06T05:12:32.985Z,3.08
2022-08-06T05:15:06.783Z,3.30
2022-08-06T05:17:41.113Z,3.40
2022-08-06T05:20:27.689Z,3.03
2022-08-06T05:23:03.488Z,3.28
2022-08-06T05:25:36.154Z,2.92
2022-08-06T05:28:11.282Z,3.08
2022-08-06T05:30:48.997Z,2.83
2022-08-06T05:33:32.153Z,3.37
2022-08-06T05:36:07.376Z,3.10
2022-08-06T05:38:58.606Z,3.33
2022-08-06T05:41:30.418Z,3.03
2022-08-06T05:44:02.165Z,2.83
2022-08-06T05:46:47.575Z,3.22
2022-08-06T05:49:57.911Z,2.83
2022-08-06T05:52:36.283Z,3.35
2022-08-06T05:55:06.011Z,2.70
2022-08-06T05:57:45.670Z,3.55
2022-08-06T06:00:41.450Z,3.40
2022-08-06T06:03:24.592Z,3.47
2022-08-06T06:06:03.944Z,3.35
2022-08-06T06:08:55.274Z,3.25
2022-08-06T06:11:47.060Z,3.17
2022-08-06T06:14:32.767Z,3.30
2022-08-06T06:17:22.910Z,3.35
2022-08-06T06:20:07.004Z,2.70
2022-08-06T06:22:53.013Z,3.17
2022-08-06T06:25:55.047Z,2.53
2022-08-06T06:28:29.394Z,2.85
2022-08-06T06:31:12.569Z,2.67
2022-08-06T06:34:10.087Z,2.80
2022-08-06T06:37:11.541Z,3.53
2022-08-06T06:40:14.702Z,2.90
2022-08-06T06:42:52.856Z,3.12
2022-08-06T06:46:07.507Z,3.25
2022-08-06T06:49:03.149Z,3.10
2022-08-06T06:51:56.716Z,3.15
2022-08-06T06:54:38.258Z,3.17
2022-08-06T06:57:09.023Z,3.42
2022-08-06T07:02:27.919Z,3.53
2022-08-06T07:07:28.695Z,3.58
2022-08-06T07:09:59.853Z,3.22
2022-08-06T07:12:31.637Z,3.12
2022-08-06T07:15:02.502Z,3.60
2022-08-06T07:17:58.933Z,3.58
2022-08-06T07:20:28.825Z,3.85
2022-08-06T07:24:03.648Z,3.35
2022-08-06T07:25:53.999Z,3.40
2022-08-06T07:28:28.235Z,3.12
2022-08-06T07:31:04.067Z,3.42
2022-08-06T07:34:00.259Z,3.35
2022-08-06T07:36:26.664Z,3.45
2022-08-06T07:39:00.648Z,3.45
2022-08-06T07:41:31.702Z,3.30
2022-08-06T07:44:17.917Z,3.15
2022-08-06T07:46:52.147Z,3.37
2022-08-06T07:49:23.011Z,3.75
2022-08-06T07:52:00.175Z,3.15
2022-08-06T07:54:34.269Z,3.03
2022-08-06T07:57:02.833Z,3.55
2022-08-06T07:59:31.180Z,3.45
2022-08-06T08:02:00.562Z,3.22
2022-08-06T08:04:52.401Z,3.53
2022-08-06T08:07:37.824Z,3.67
2022-08-06T08:10:10.507Z,3.60
2022-08-06T08:12:38.901Z,3.50
2022-08-06T08:15:18.692Z,3.40
2022-08-06T08:17:56.420Z,3.40
2022-08-06T08:20:33.623Z,3.10
2022-08-06T08:23:05.822Z,3.28
2022-08-06T08:25:40.947Z,3.67
2022-08-06T08:28:15.089Z,3.97
2022-08-06T08:30:47.858Z,3.40
2022-08-06T08:33:19.659Z,3.33
2022-08-06T08:35:49.203Z,3.20
2022-08-06T08:38:22.767Z,3.70
2022-08-06T08:40:55.483Z,3.20
2022-08-06T08:43:58.718Z,3.50
2022-08-06T08:46:16.036Z,3.50
2022-08-06T08:48:44.504Z,3.30
2022-08-06T08:51:13.568Z,3.35
2022-08-06T08:53:46.822Z,3.10
2022-08-06T08:57:10.866Z,3.30
2022-08-06T08:59:57.343Z,3.67
2022-08-06T09:01:57.079Z,2.95
2022-08-06T09:04:28.373Z,3.53
2022-08-06T09:06:57.276Z,3.17
2022-08-06T09:09:32.548Z,3.12
2022-08-06T09:12:05.975Z,2.80
2022-08-06T09:14:47.843Z,3.17
2022-08-06T09:17:18.095Z,3.55
2022-08-06T09:20:04.689Z,3.30
2022-08-06T09:22:35.091Z,2.75
2022-08-06T09:25:07.609Z,3.05
2022-08-06T09:27:47.049Z,3.35
2022-08-06T09:30:30.096Z,3.22
2022-08-06T09:33:04.041Z,3.22
2022-08-06T09:35:58.724Z,3.47
2022-08-06T09:38:27.512Z,3.50
2022-08-06T09:41:06.526Z,3.22
2022-08-06T09:44:03.020Z,3.75
2022-08-06T09:46:36.804Z,3.30
2022-08-06T09:49:48.236Z,3.50
2022-08-06T09:52:15.054Z,3.58
2022-08-06T09:57:15.402Z,3.58
2022-08-06T09:59:49.991Z,3.40
2022-08-06T10:02:23.283Z,3.83
2022-08-06T10:04:52.302Z,3.50
2022-08-06T10:07:40.627Z,3.40
2022-08-06T10:10:09.505Z,3.00
2022-08-06T10:12:38.147Z,3.85
2022-08-06T10:15:08.534Z,4.07
2022-08-06T10:17:49.650Z,4.03
2022-08-06T10:20:20.240Z,3.87
2022-08-06T10:22:52.918Z,3.92
2022-08-06T10:25:29.437Z,4.05
2022-08-06T10:27:58.745Z,3.78
2022-08-06T10:30:30.082Z,3.95
2022-08-06T10:33:04.795Z,4.05
2022-08-06T10:35:45.662Z,3.80
2022-08-06T10:38:16.687Z,3.72
2022-08-06T10:40:58.659Z,3.42
2022-08-06T10:43:34.429Z,3.85
2022-08-06T10:46:06.368Z,3.83
2022-08-06T10:50:20.177Z,4.50
2022-08-06T10:51:53.023Z,3.95
2022-08-06T10:54:22.513Z,4.05
2022-08-06T10:56:52.388Z,4.00
2022-08-06T10:59:25.802Z,5.00
2022-08-06T11:02:26.984Z,4.18
2022-08-06T11:05:00.509Z,4.37
2022-08-06T11:08:09.907Z,4.65
2022-08-06T11:10:59.145Z,4.22
2022-08-06T11:13:37.462Z,4.28
2022-08-06T11:16:27.483Z,4.65
2022-08-06T11:19:23.055Z,4.82
2022-08-06T11:21:58.881Z,4.70
2022-08-06T11:24:32.228Z,4.25
2022-08-06T11:27:11.426Z,4.93
2022-08-06T11:30:07.924Z,4.87
2022-08-06T11:32:50.730Z,4.40
2022-08-06T11:35:47.432Z,4.57
2022-08-06T11:38:48.699Z,4.37
2022-08-06T11:41:55.247Z,4.70
2022-08-06T11:44:11.896Z,4.95
2022-08-06T11:46:48.332Z,5.10
2022-08-06T11:49:20.577Z,4.53
2022-08-06T11:52:05.899Z,5.22
2022-08-06T11:54:56.017Z,4.78
2022-08-06T11:57:40.805Z,5.28
2022-08-06T12:00:14.964Z,5.12
2022-08-06T12:02:47.288Z,4.60
2022-08-06T12:05:17.257Z,5.35
2022-08-06T12:08:22.200Z,4.95
2022-08-06T12:11:24.946Z,5.70
2022-08-06T12:14:32.327Z,5.03
2022-08-06T12:16:41.445Z,6.35
2022-08-06T12:19:21.801Z,5.60
2022-08-06T12:21:56.850Z,5.57
2022-08-06T12:24:45.473Z,5.45
2022-08-06T12:27:24.278Z,5.47
2022-08-06T12:29:59.649Z,6.05
2022-08-06T12:32:30.883Z,5.50
2022-08-06T12:35:00.893Z,5.70
2022-08-06T12:37:41.235Z,5.43
2022-08-06T12:40:34.653Z,6.10
2022-08-06T12:43:14.236Z,6.03
2022-08-06T12:46:06.171Z,5.30
2022-08-06T12:48:31.919Z,5.18
2022-08-06T12:51:11.413Z,5.60
2022-08-06T12:53:53.290Z,6.22
2022-08-06T12:56:31.559Z,5.47
2022-08-06T12:59:03.814Z,5.75
2022-08-06T13:02:09.175Z,5.00
2022-08-06T13:04:20.892Z,5.47
2022-08-06T13:06:49.438Z,4.70
2022-08-06T13:09:19.272Z,5.35
2022-08-06T13:11:50.942Z,5.25
2022-08-06T13:14:20.445Z,5.30
2022-08-06T13:16:57.298Z,6.28
2022-08-06T13:19:28.278Z,5.97
2022-08-06T13:22:03.279Z,5.87
2022-08-06T13:24:34.464Z,5.47
2022-08-06T13:27:06.140Z,5.75
2022-08-06T13:30:31.069Z,5.57
2022-08-06T13:32:34.197Z,5.93
2022-08-06T13:35:16.784Z,5.60
2022-08-06T13:37:56.636Z,5.37
2022-08-06T13:40:41.816Z,5.40
2022-08-06T13:43:10.728Z,5.30
2022-08-06T13:46:29.306Z,4.68
2022-08-06T13:49:01.345Z,4.70
2022-08-06T13:51:35.094Z,5.32
2022-08-06T13:54:16.186Z,4.22
2022-08-06T13:56:49.319Z,4.72
2022-08-06T13:59:21.745Z,4.22
2022-08-06T14:02:08.110Z,4.53
2022-08-06T14:04:36.911Z,4.15
2022-08-06T14:07:05.397Z,4.37
2022-08-06T14:09:58.424Z,4.00
2022-08-06T14:12:20.854Z,3.62
2022-08-06T14:14:48.627Z,3.62
2022-08-06T14:17:18.002Z,3.33
2022-08-06T14:20:14.682Z,3.75
2022-08-06T14:22:36.746Z,3.83
2022-08-06T14:25:05.463Z,3.45
2022-08-06T14:27:43.515Z,3.58
2022-08-06T14:30:27.068Z,3.50
2022-08-06T14:33:10.135Z,3.53
2022-08-06T14:35:50.183Z,3.50
2022-08-06T14:38:18.298Z,2.97
2022-08-06T14:41:04.349Z,3.15
2022-08-06T14:43:56.198Z,3.08
2022-08-06T14:46:26.968Z,3.35
2022-08-06T14:48:58.320Z,3.17
2022-08-06T14:51:37.545Z,2.67
2022-08-06T14:54:16.591Z,2.35
2022-08-06T14:56:45.886Z,3.00
2022-08-06T14:59:22.467Z,2.53
2022-08-06T15:01:51.648Z,2.72
2022-08-06T15:04:23.502Z,2.92
2022-08-06T15:06:59.108Z,2.92
2022-08-06T15:10:05.763Z,2.47
2022-08-06T15:12:34.553Z,2.25
2022-08-06T15:15:05.692Z,2.15
2022-08-06T15:18:03.922Z,1.87
2022-08-06T15:20:25.345Z,2.47
2022-08-06T15:22:54.027Z,1.98
2022-08-06T15:25:59.954Z,2.08
2022-08-06T15:28:12.073Z,2.53
2022-08-06T15:30:39.510Z,2.55
2022-08-06T15:33:08.089Z,1.92
2022-08-06T15:35:56.993Z,2.08
2022-08-06T15:38:32.524Z,2.08
2022-08-06T15:41:01.286Z,2.03
2022-08-06T15:43:44.408Z,2.22
2022-08-06T15:46:14.597Z,2.15
2022-08-06T15:48:47.165Z,2.08
2022-08-06T15:51:28.539Z,1.73
2022-08-06T15:53:59.617Z,2.35
2022-08-06T15:56:34.446Z,2.28
2022-08-06T15:59:11.513Z,1.70
2022-08-06T16:02:02.088Z,1.83
2022-08-06T16:04:35.805Z,1.67
2022-08-06T16:07:05.731Z,1.85
2022-08-06T16:10:01.356Z,1.67
2022-08-06T16:12:25.466Z,1.40
2022-08-06T16:14:54.434Z,1.50
2022-08-06T16:17:52.651Z,1.65
2022-08-06T16:20:20.531Z,1.40
2022-08-06T16:22:52.199Z,1.50
2022-08-06T16:25:22.008Z,1.60
2022-08-06T16:27:51.745Z,1.67
2022-08-06T16:30:21.158Z,1.60
2022-08-06T16:32:49.728Z,1.77
2022-08-06T16:35:21.245Z,1.42
2022-08-06T16:37:52.036Z,1.48
2022-08-06T16:40:21.917Z,1.40
2022-08-06T16:45:23.258Z,1.50
2022-08-06T16:48:04.246Z,1.50
2022-08-06T16:50:41.038Z,1.48
2022-08-06T16:54:08.784Z,1.70
2022-08-06T16:55:57.018Z,1.40
2022-08-06T17:02:14.587Z,1.60
2022-08-06T17:04:00.769Z,1.67
2022-08-06T17:06:47.324Z,1.17
2022-08-06T17:09:17.187Z,1.27
2022-08-06T17:11:58.261Z,1.48
2022-08-06T17:14:27.873Z,1.25
2022-08-06T17:16:58.692Z,1.60
2022-08-06T17:19:29.750Z,1.70
2022-08-06T17:22:00.370Z,1.27
2022-08-06T17:24:33.133Z,1.77
2022-08-06T17:27:10.289Z,1.10
2022-08-06T17:29:46.630Z,1.23
2022-08-06T17:32:30.165Z,1.20
2022-08-06T17:35:06.573Z,1.37
2022-08-06T17:37:44.467Z,1.00
2022-08-06T17:40:18.812Z,1.30
2022-08-06T17:42:56.201Z,1.17
2022-08-06T17:45:23.788Z,1.20
2022-08-06T17:47:52.590Z,1.05
2022-08-06T17:50:20.641Z,1.15
2022-08-06T17:52:48.164Z,1.25
2022-08-06T17:55:17.216Z,1.17
2022-08-06T17:58:03.866Z,0.98
2022-08-06T18:00:37.361Z,1.05
2022-08-06T18:03:23.945Z,0.88
2022-08-06T18:06:03.486Z,1.50
2022-08-06T18:08:50.586Z,1.12
2022-08-06T18:11:20.661Z,0.80
2022-08-06T18:13:52.201Z,1.10
2022-08-06T18:16:22.258Z,0.90
2022-08-06T18:18:57.979Z,1.00
2022-08-06T18:21:27.427Z,1.02
2022-08-06T18:23:56.852Z,1.10
2022-08-06T18:26:30.698Z,1.10
2022-08-06T18:29:05.989Z,1.15
2022-08-06T18:31:58.818Z,1.30
2022-08-06T18:34:29.454Z,1.30
2022-08-06T18:37:05.545Z,1.00
2022-08-06T18:40:19.091Z,1.10
2022-08-06T18:42:36.092Z,1.00
2022-08-06T18:45:04.541Z,0.90
2022-08-06T18:47:33.378Z,1.12
2022-08-06T18:50:01.460Z,1.00
2022-08-06T18:52:33.712Z,1.17
2022-08-06T18:55:03.785Z,1.15
2022-08-06T18:58:01.208Z,1.12
2022-08-06T19:00:23.747Z,1.23
2022-08-06T19:03:00.713Z,1.20
2022-08-06T19:05:29.665Z,1.20
2022-08-06T19:08:00.164Z,1.00
2022-08-06T19:10:33.243Z,1.20
2022-08-06T19:13:08.538Z,1.17
2022-08-06T19:15:46.445Z,1.23
2022-08-06T19:18:25.560Z,1.12
2022-08-06T19:20:53.541Z,1.33
2022-08-06T19:24:00.897Z,1.17
2022-08-06T19:26:12.796Z,1.10
2022-08-06T19:31:23.364Z,1.00
2022-08-06T19:34:14.122Z,1.10
2022-08-06T19:36:48.185Z,1.27
2022-08-06T19:39:53.425Z,1.08
2022-08-06T19:42:31.688Z,1.23
2022-08-06T19:45:04.533Z,1.20
2022-08-06T19:47:47.878Z,1.00
2022-08-06T19:52:47.222Z,1.20
2022-08-06T19:56:09.285Z,1.37
2022-08-06T19:58:26.644Z,1.30
2022-08-06T20:01:04.947Z,1.20
2022-08-06T20:03:38.779Z,1.33
2022-08-06T20:06:19.664Z,1.50
2022-08-06T20:08:49.761Z,1.35
2022-08-06T20:12:02.974Z,1.30
2022-08-06T20:14:04.700Z,1.25
2022-08-06T20:16:34.103Z,1.23
2022-08-06T20:19:01.534Z,1.52
2022-08-06T20:21:42.410Z,1.42
2022-08-06T20:24:10.851Z,1.48
2022-08-06T20:26:51.340Z,1.50
2022-08-06T20:29:34.796Z,1.33
2022-08-06T20:32:16.893Z,1.50
2022-08-06T20:34:48.261Z,1.60
2022-08-06T20:37:16.511Z,1.80
2022-08-06T20:39:48.490Z,1.30
2022-08-06T20:42:20.875Z,1.33
2022-08-06T20:44:51.771Z,1.70
2022-08-06T20:47:45.342Z,1.73
2022-08-06T20:50:10.904Z,1.50
2022-08-06T20:52:42.764Z,1.52
2022-08-06T20:55:13.391Z,1.77
2022-08-06T20:57:48.236Z,1.50
2022-08-06T21:00:22.085Z,1.40
2022-08-06T21:03:03.009Z,1.33
2022-08-06T21:05:51.050Z,1.50
2022-08-06T21:08:26.434Z,1.27
2022-08-06T21:10:58.404Z,1.45
2022-08-06T21:13:29.574Z,1.70
2022-08-06T21:16:14.295Z,1.70
2022-08-06T21:18:50.382Z,1.67
2022-08-06T21:21:17.728Z,1.55
2022-08-06T21:23:56.095Z,1.58
2022-08-06T21:26:34.895Z,1.70
2022-08-06T21:29:41.648Z,1.37
2022-08-06T21:31:54.038Z,1.60
2022-08-06T21:34:27.197Z,1.48
2022-08-06T21:36:56.441Z,1.40
2022-08-06T21:39:52.648Z,1.50
2022-08-06T21:42:13.112Z,1.62
2022-08-06T21:44:41.459Z,1.42
2022-08-06T21:47:09.891Z,1.42
2022-08-06T21:49:58.908Z,1.42
2022-08-06T21:52:28.039Z,1.58
2022-08-06T21:55:05.362Z,1.42
2022-08-06T21:57:48.365Z,1.50
2022-08-06T22:00:40.224Z,1.98
2022-08-06T22:04:35.677Z,1.70
2022-08-06T22:06:21.786Z,1.48
2022-08-06T22:08:48.066Z,1.65
2022-08-06T22:12:39.673Z,1.60
2022-08-06T22:14:15.638Z,1.70
2022-08-06T22:16:48.803Z,1.50
2022-08-06T22:19:33.483Z,1.80
2022-08-06T22:22:07.720Z,1.70
2022-08-06T22:24:37.664Z,1.60
2022-08-06T22:27:06.394Z,1.73
2022-08-06T22:29:57.111Z,1.70
2022-08-06T22:32:24.452Z,1.70
2022-08-06T22:34:52.585Z,1.77
2022-08-06T22:38:15.238Z,1.85
2022-08-06T22:40:09.478Z,1.73
2022-08-06T22:42:59.128Z,1.70
2022-08-06T22:45:59.865Z,1.60
2022-08-06T22:48:14.010Z,2.00
2022-08-06T22:50:42.029Z,1.70
2022-08-06T22:54:27.111Z,1.48
2022-08-06T22:56:07.863Z,1.90
2022-08-06T22:59:05.429Z,1.60
2022-08-06T23:02:07.266Z,1.65
2022-08-06T23:04:10.933Z,1.50
2022-08-06T23:06:38.544Z,1.50
2022-08-06T23:09:10.066Z,1.85
2022-08-06T23:11:59.189Z,1.45
2022-08-06T23:14:32.152Z,1.60
2022-08-06T23:17:02.622Z,1.48
2022-08-06T23:19:34.687Z,1.60
2022-08-06T23:22:05.339Z,1.55
2022-08-06T23:24:36.383Z,1.95
2022-08-06T23:27:06.898Z,1.65
2022-08-06T23:30:10.688Z,1.80
2022-08-06T23:32:30.112Z,1.65
2022-08-06T23:34:59.504Z,1.90
2022-08-06T23:37:31.876Z,1.90
2022-08-06T23:40:12.122Z,2.00
2022-08-06T23:42:45.206Z,2.05
2022-08-06T23:45:12.867Z,1.67
2022-08-06T23:47:54.002Z,2.08
2022-08-06T23:50:26.141Z,1.87
2022-08-06T23:53:06.611Z,2.00
2022-08-06T23:55:37.107Z,2.10
2022-08-06T23:58:08.653Z,1.80
